Time;durP1;ratioP1;P1;durP2;ratioP2;P2;SDS_P1;SDS_P2;PMS_P1;PMS_P2;Temp;Humidity;BMP_temperature;BMP_pressure;BME280_temperature;BME280_humidity;BME280_pressure;Samples;Min_cycle;Max_cycle;Signal;HPM_P1;HPM_P2
2022/04/30 00:01:55;;;;;;;;;;;12.50;74.10;;;;;;5054344;28;19940;-89
2022/04/30 00:04:20;;;;;;;;;;;12.40;74.70;;;;;;5054069;28;19916;-88
2022/04/30 00:06:46;;;;;;;;;;;12.40;75.00;;;;;;5054043;28;19934;-88
2022/04/30 00:09:11;;;;;;;;;;;12.30;75.00;;;;;;5053673;28;20434;-89
2022/04/30 00:11:37;;;;;;;;;;;12.30;75.30;;;;;;5053846;28;20370;-88
2022/04/30 00:14:03;;;;;;;;;;;12.30;75.20;;;;;;5061490;28;19912;-89
2022/04/30 00:16:28;;;;;;;;;;;12.30;75.90;;;;;;5073771;28;20302;-89
2022/04/30 00:18:56;;;;;;;;;;;12.20;75.60;;;;;;5073479;28;20392;-89
2022/04/30 00:21:21;;;;;;;;;;;12.10;76.40;;;;;;5073776;28;19929;-89
2022/04/30 00:23:47;;;;;;;;;;;12.10;77.40;;;;;;5073708;28;20390;-88
2022/04/30 00:26:12;;;;;;;;;;;12.00;77.90;;;;;;5073603;28;19923;-88
2022/04/30 00:28:38;;;;;;;;;;;11.80;78.30;;;;;;5073471;28;19946;-88
2022/04/30 00:31:03;;;;;;;;;;;11.80;79.00;;;;;;5073711;28;19972;-89
2022/04/30 00:33:30;;;;;;;;;;;11.80;78.60;;;;;;5073492;28;19935;-89
2022/04/30 00:35:56;;;;;;;;;;;11.80;78.00;;;;;;5073378;28;19948;-88
2022/04/30 00:38:21;;;;;;;;;;;11.80;78.40;;;;;;5073459;28;20040;-89
2022/04/30 00:40:47;;;;;;;;;;;11.80;78.90;;;;;;5073371;28;19988;-89
2022/04/30 00:43:13;;;;;;;;;;;11.80;79.20;;;;;;5072517;28;20031;-88
2022/04/30 00:45:44;;;;;;;;;;;11.80;79.10;;;;;;5073256;28;20404;-88
2022/04/30 00:48:09;;;;;;;;;;;11.80;79.00;;;;;;5073335;28;19952;-89
2022/04/30 00:50:36;;;;;;;;;;;11.80;78.80;;;;;;5073208;28;20418;-88
2022/04/30 00:53:03;;;;;;;;;;;11.70;78.90;;;;;;5063358;28;19944;-89
2022/04/30 00:55:29;;;;;;;;;;;11.80;79.50;;;;;;5067450;28;19960;-88
2022/04/30 00:57:58;;;;;;;;;;;11.80;79.20;;;;;;5073215;28;19937;-88
2022/04/30 01:00:26;;;;;;;;;;;11.70;79.20;;;;;;5073173;28;20452;-89
2022/04/30 01:02:52;;;;;;;;;;;11.60;79.00;;;;;;5073136;28;19960;-89
2022/04/30 01:05:17;;;;;;;;;;;11.60;78.90;;;;;;5073185;28;19945;-88
2022/04/30 01:07:43;;;;;;;;;;;11.60;79.10;;;;;;5073388;28;19953;-89
2022/04/30 01:10:09;;;;;;;;;;;11.70;78.80;;;;;;5067155;22;20072;-88
2022/04/30 01:12:34;;;;;;;;;;;11.80;78.60;;;;;;5052997;28;19948;-88
2022/04/30 01:15:04;;;;;;;;;;;11.70;78.70;;;;;;5052951;28;20421;-88
2022/04/30 01:17:29;;;;;;;;;;;11.40;78.70;;;;;;5052985;28;19997;-88
2022/04/30 01:19:55;;;;;;;;;;;11.30;79.10;;;;;;5052952;28;19937;-89
2022/04/30 01:22:26;;;;;;;;;;;11.20;79.70;;;;;;5052997;28;20437;-88
2022/04/30 01:24:59;;;;;;;;;;;11.20;80.20;;;;;;5052946;28;20418;-88
2022/04/30 01:27:26;;;;;;;;;;;11.10;80.60;;;;;;5053109;28;20048;-89
2022/04/30 01:29:55;;;;;;;;;;;11.10;81.00;;;;;;5052995;28;20015;-88
2022/04/30 01:38:00;;;;;;;;;;;11.30;81.50;;;;;;5056857;28;20021;-88
2022/04/30 01:40:25;;;;;;;;;;;11.30;79.80;;;;;;5056751;28;20390;-88
2022/04/30 01:42:52;;;;;;;;;;;10.80;80.00;;;;;;5056902;28;19960;-88
2022/04/30 01:45:18;;;;;;;;;;;10.40;81.70;;;;;;5056904;28;19980;-88
2022/04/30 01:47:46;;;;;;;;;;;10.10;83.60;;;;;;5056607;28;19934;-88
2022/04/30 01:50:13;;;;;;;;;;;10.00;84.80;;;;;;5038663;28;20088;-89
2022/04/30 01:52:39;;;;;;;;;;;9.90;85.40;;;;;;5056597;28;20017;-88
2022/04/30 01:55:04;;;;;;;;;;;9.90;85.60;;;;;;5056524;28;20013;-89
2022/04/30 01:57:30;;;;;;;;;;;9.90;86.20;;;;;;5062158;28;20415;-89
2022/04/30 01:59:56;;;;;;;;;;;10.10;86.30;;;;;;5076427;28;19923;-88
2022/04/30 02:02:24;;;;;;;;;;;10.10;86.30;;;;;;5076331;28;20437;-88
2022/04/30 02:04:51;;;;;;;;;;;10.10;86.30;;;;;;5076359;28;19931;-89
2022/04/30 02:07:17;;;;;;;;;;;10.20;86.20;;;;;;5076284;28;19961;-88
2022/04/30 02:09:43;;;;;;;;;;;10.40;85.60;;;;;;5074225;28;20010;-88
2022/04/30 02:12:09;;;;;;;;;;;10.60;84.90;;;;;;5076233;28;19959;-88
2022/04/30 02:14:35;;;;;;;;;;;10.70;83.80;;;;;;5076058;28;20383;-88
2022/04/30 02:17:01;;;;;;;;;;;10.70;83.40;;;;;;5076101;28;19958;-89
2022/04/30 02:19:28;;;;;;;;;;;10.70;83.00;;;;;;5076353;28;20307;-88
2022/04/30 02:21:57;;;;;;;;;;;10.60;83.10;;;;;;5075993;28;19935;-88
2022/04/30 02:24:24;;;;;;;;;;;10.50;82.80;;;;;;5076191;28;19954;-88
2022/04/30 02:26:50;;;;;;;;;;;10.40;83.10;;;;;;5075907;28;19924;-89
2022/04/30 02:29:15;;;;;;;;;;;10.40;82.90;;;;;;5075840;28;20311;-88
2022/04/30 02:31:41;;;;;;;;;;;10.40;83.20;;;;;;5075718;28;19942;-88
2022/04/30 02:34:06;;;;;;;;;;;10.40;83.00;;;;;;5075755;28;19932;-89
2022/04/30 02:36:34;;;;;;;;;;;10.60;82.90;;;;;;5075701;28;19997;-88
2022/04/30 02:39:00;;;;;;;;;;;10.60;81.70;;;;;;5075980;28;19943;-88
2022/04/30 02:41:28;;;;;;;;;;;10.60;81.00;;;;;;5058128;28;19998;-89
2022/04/30 02:43:54;;;;;;;;;;;10.60;82.00;;;;;;5035712;28;20404;-88
2022/04/30 02:46:20;;;;;;;;;;;10.70;82.70;;;;;;5035848;28;19982;-89
2022/04/30 02:48:46;;;;;;;;;;;10.90;82.40;;;;;;5035593;28;19937;-88
2022/04/30 02:51:12;;;;;;;;;;;10.90;81.50;;;;;;5035451;28;19951;-89
2022/04/30 02:53:37;;;;;;;;;;;10.80;81.40;;;;;;5035481;28;19983;-88
2022/04/30 02:56:04;;;;;;;;;;;10.70;81.00;;;;;;5035446;28;20001;-88
2022/04/30 03:01:13;;;;;;;;;;;10.50;81.00;;;;;;5035360;28;19997;-89
2022/04/30 03:03:40;;;;;;;;;;;10.50;81.00;;;;;;5035292;28;19943;-88
2022/04/30 03:06:07;;;;;;;;;;;10.50;80.90;;;;;;5035301;28;20076;-88
2022/04/30 03:08:32;;;;;;;;;;;10.40;81.30;;;;;;5035163;28;19956;-88
2022/04/30 03:10:58;;;;;;;;;;;10.30;82.40;;;;;;5061124;28;19970;-88
2022/04/30 03:13:24;;;;;;;;;;;10.20;82.90;;;;;;5075100;28;20416;-89
2022/04/30 03:15:51;;;;;;;;;;;10.20;82.90;;;;;;5075022;28;19943;-88
2022/04/30 03:23:51;;;;;;;;;;;10.60;81.80;;;;;;5075149;28;20047;-89
2022/04/30 03:26:17;;;;;;;;;;;10.60;81.30;;;;;;5074857;28;20012;-88
2022/04/30 03:28:43;;;;;;;;;;;10.60;81.20;;;;;;5074737;28;19933;-88
2022/04/30 03:31:10;;;;;;;;;;;10.70;80.80;;;;;;5074652;28;20062;-89
2022/04/30 03:33:36;;;;;;;;;;;10.70;80.60;;;;;;5074581;28;19940;-88
2022/04/30 03:36:02;;;;;;;;;;;10.70;80.70;;;;;;5074682;28;20038;-89
2022/04/30 03:38:28;;;;;;;;;;;10.80;80.80;;;;;;5074547;28;20397;-89
2022/04/30 03:40:53;;;;;;;;;;;10.80;80.60;;;;;;5061191;28;19959;-89
2022/04/30 03:43:19;;;;;;;;;;;10.70;80.70;;;;;;5054449;28;20372;-88
2022/04/30 03:45:45;;;;;;;;;;;10.60;80.70;;;;;;5054465;28;19960;-89
2022/04/30 03:48:12;;;;;;;;;;;10.50;80.60;;;;;;5054387;28;19936;-88
2022/04/30 03:50:38;;;;;;;;;;;10.40;80.60;;;;;;5054270;28;19970;-88
2022/04/30 03:53:03;;;;;;;;;;;10.40;81.00;;;;;;5053988;28;19948;-88
2022/04/30 03:55:29;;;;;;;;;;;10.30;81.70;;;;;;5054014;28;19960;-89
2022/04/30 03:57:55;;;;;;;;;;;10.30;82.30;;;;;;5054191;28;20435;-88
2022/04/30 04:00:20;;;;;;;;;;;10.30;82.70;;;;;;5054142;28;20030;-88
2022/04/30 04:02:46;;;;;;;;;;;10.30;82.30;;;;;;5054102;28;19939;-88
2022/04/30 04:05:12;;;;;;;;;;;10.30;82.30;;;;;;5054110;28;20052;-88
2022/04/30 04:07:41;;;;;;;;;;;10.30;82.50;;;;;;5054013;28;19937;-88
2022/04/30 04:10:09;;;;;;;;;;;10.20;82.60;;;;;;5062658;28;19983;-88
2022/04/30 04:12:34;;;;;;;;;;;10.10;82.80;;;;;;5073949;28;19933;-89
2022/04/30 04:17:44;;;;;;;;;;;10.00;83.20;;;;;;5066704;28;19962;-89
2022/04/30 04:20:11;;;;;;;;;;;9.90;83.70;;;;;;5051748;28;19939;-88
2022/04/30 04:22:36;;;;;;;;;;;9.80;83.70;;;;;;5053318;28;19953;-88
2022/04/30 04:27:54;;;;;;;;;;;9.80;84.50;;;;;;5051481;28;20000;-89
2022/04/30 04:30:20;;;;;;;;;;;9.90;84.20;;;;;;5053491;28;19976;-89
2022/04/30 04:32:45;;;;;;;;;;;10.00;84.00;;;;;;5052554;28;20018;-89
2022/04/30 04:35:14;;;;;;;;;;;10.00;83.70;;;;;;5053249;28;20008;-88
2022/04/30 04:37:39;;;;;;;;;;;10.00;83.10;;;;;;5053446;28;19944;-88
2022/04/30 04:40:05;;;;;;;;;;;10.00;82.90;;;;;;5053709;28;20021;-89
2022/04/30 04:42:31;;;;;;;;;;;10.00;83.60;;;;;;5053312;28;20364;-88
2022/04/30 04:44:56;;;;;;;;;;;10.00;83.70;;;;;;5053321;28;19974;-88
2022/04/30 04:47:22;;;;;;;;;;;10.00;84.20;;;;;;5053559;28;20412;-87
2022/04/30 04:49:48;;;;;;;;;;;10.10;84.40;;;;;;5052691;28;20489;-87
2022/04/30 04:52:13;;;;;;;;;;;10.20;84.20;;;;;;5053051;28;19957;-88
2022/04/30 04:54:39;;;;;;;;;;;10.10;82.00;;;;;;5053043;28;19947;-88
2022/04/30 04:57:04;;;;;;;;;;;10.10;83.60;;;;;;5053480;28;19960;-88
2022/04/30 04:59:30;;;;;;;;;;;10.10;83.10;;;;;;5053150;28;20407;-88
2022/04/30 05:01:55;;;;;;;;;;;10.10;83.00;;;;;;5052497;28;19994;-88
2022/04/30 05:04:23;;;;;;;;;;;10.20;82.60;;;;;;5036085;28;20270;-89
2022/04/30 05:06:48;;;;;;;;;;;10.30;82.40;;;;;;5039975;28;20023;-88
2022/04/30 05:09:14;;;;;;;;;;;10.40;82.90;;;;;;5036222;28;20011;-87
2022/04/30 05:11:40;;;;;;;;;;;10.50;83.50;;;;;;5066214;28;20029;-88
2022/04/30 05:14:06;;;;;;;;;;;10.60;82.10;;;;;;5051086;28;19927;-88
2022/04/30 05:16:32;;;;;;;;;;;10.60;82.00;;;;;;5056021;28;19989;-87
2022/04/30 05:18:57;;;;;;;;;;;10.70;82.80;;;;;;5037933;28;20433;-88
2022/04/30 05:21:23;;;;;;;;;;;10.80;82.70;;;;;;5048956;28;19993;-88
2022/04/30 05:23:49;;;;;;;;;;;10.90;82.70;;;;;;5050066;28;19923;-88
2022/04/30 05:26:14;;;;;;;;;;;10.90;82.90;;;;;;5052873;28;19951;-88
2022/04/30 05:28:40;;;;;;;;;;;11.10;82.90;;;;;;5052844;28;20316;-88
2022/04/30 05:31:06;;;;;;;;;;;11.10;82.40;;;;;;5054692;28;19935;-87
2022/04/30 05:56:41;;;;;;;;;;;11.20;82.70;;;;;;5115713;27;19953;-87
2022/04/30 05:59:06;;;;;;;;;;;12.30;78.50;;;;;;5124889;28;19959;-89
2022/04/30 06:01:32;;;;;;;;;;;12.50;77.60;;;;;;5111456;28;19963;-88
2022/04/30 06:03:57;;;;;;;;;;;12.60;77.80;;;;;;5112021;28;19998;-88
2022/04/30 06:06:23;;;;;;;;;;;12.80;78.50;;;;;;5103785;28;19961;-88
2022/04/30 06:08:48;;;;;;;;;;;13.00;76.40;;;;;;5106687;28;20016;-88
2022/04/30 06:11:14;;;;;;;;;;;13.20;75.30;;;;;;5098993;28;19945;-88
2022/04/30 06:13:40;;;;;;;;;;;13.30;75.40;;;;;;5095300;28;20430;-87
2022/04/30 06:16:05;;;;;;;;;;;13.60;73.50;;;;;;5105470;28;20406;-88
2022/04/30 06:18:31;;;;;;;;;;;13.90;71.90;;;;;;5092510;28;19942;-89
2022/04/30 06:20:57;;;;;;;;;;;14.00;72.00;;;;;;5105238;28;20355;-89
2022/04/30 06:23:22;;;;;;;;;;;14.10;73.10;;;;;;5091513;28;19942;-89
2022/04/30 06:25:48;;;;;;;;;;;14.30;73.10;;;;;;5107260;28;19944;-89
2022/04/30 06:28:14;;;;;;;;;;;14.40;72.60;;;;;;5103855;28;20379;-89
2022/04/30 06:30:40;;;;;;;;;;;14.50;72.30;;;;;;5100763;28;20354;-89
2022/04/30 06:33:06;;;;;;;;;;;14.60;71.60;;;;;;5101336;28;19923;-89
2022/04/30 06:35:32;;;;;;;;;;;14.80;70.60;;;;;;5097606;28;20000;-89
2022/04/30 06:37:57;;;;;;;;;;;15.10;70.40;;;;;;5093167;28;19936;-88
2022/04/30 06:40:23;;;;;;;;;;;15.30;68.40;;;;;;5103656;28;19937;-89
2022/04/30 06:42:48;;;;;;;;;;;15.50;65.30;;;;;;5101373;28;20420;-89
2022/04/30 06:45:14;;;;;;;;;;;15.60;63.70;;;;;;5103876;28;19932;-89
2022/04/30 06:47:40;;;;;;;;;;;15.80;63.20;;;;;;5096322;28;19950;-88
2022/04/30 06:50:07;;;;;;;;;;;15.90;61.20;;;;;;5098127;28;19919;-88
2022/04/30 06:52:32;;;;;;;;;;;16.10;61.20;;;;;;5103136;28;20400;-88
2022/04/30 06:57:43;;;;;;;;;;;16.20;58.30;;;;;;5094418;28;19919;-88
2022/04/30 07:02:55;;;;;;;;;;;16.20;60.50;;;;;;5104486;28;19953;-89
2022/04/30 07:05:21;;;;;;;;;;;16.30;59.50;;;;;;5093756;28;19912;-87
2022/04/30 07:07:46;;;;;;;;;;;16.30;59.00;;;;;;5097245;28;19912;-88
2022/04/30 07:10:12;;;;;;;;;;;16.40;58.50;;;;;;5100497;28;19951;-88
2022/04/30 07:12:37;;;;;;;;;;;16.40;59.40;;;;;;5097972;28;19957;-89
2022/04/30 07:15:03;;;;;;;;;;;16.60;56.80;;;;;;5082115;28;19943;-89
2022/04/30 07:17:28;;;;;;;;;;;16.70;56.60;;;;;;5088198;28;20395;-89
2022/04/30 07:19:54;;;;;;;;;;;16.80;56.30;;;;;;5089086;28;19935;-89
2022/04/30 07:22:19;;;;;;;;;;;16.90;54.00;;;;;;5087715;28;19970;-89
2022/04/30 07:24:45;;;;;;;;;;;17.00;56.10;;;;;;5082826;28;20391;-89
2022/04/30 07:27:11;;;;;;;;;;;17.10;54.50;;;;;;5087849;28;19946;-89
2022/04/30 07:29:38;;;;;;;;;;;17.30;51.70;;;;;;5084210;28;20307;-88
2022/04/30 07:32:07;;;;;;;;;;;17.30;52.60;;;;;;5086416;28;19916;-89
2022/04/30 07:34:33;;;;;;;;;;;17.40;52.60;;;;;;5083971;28;19975;-88
2022/04/30 07:36:59;;;;;;;;;;;17.40;53.70;;;;;;5092098;28;20381;-89
2022/04/30 07:39:24;;;;;;;;;;;17.40;52.90;;;;;;5083529;28;19912;-88
2022/04/30 07:41:53;;;;;;;;;;;17.40;55.00;;;;;;5091824;28;19919;-88
2022/04/30 07:44:18;;;;;;;;;;;17.40;52.50;;;;;;5077838;28;19948;-88
2022/04/30 07:46:44;;;;;;;;;;;17.50;53.80;;;;;;5082643;28;19967;-88
2022/04/30 07:49:10;;;;;;;;;;;17.60;51.00;;;;;;5088586;28;19946;-88
2022/04/30 07:51:42;;;;;;;;;;;17.70;50.20;;;;;;5077312;28;20323;-88
2022/04/30 07:54:08;;;;;;;;;;;17.90;49.70;;;;;;5095485;28;19954;-88
2022/04/30 07:56:34;;;;;;;;;;;18.00;49.60;;;;;;5081946;28;20003;-88
2022/04/30 07:58:59;;;;;;;;;;;18.20;51.10;;;;;;5086525;28;19989;-88
2022/04/30 08:01:25;;;;;;;;;;;18.30;51.20;;;;;;5077128;28;19912;-88
2022/04/30 08:03:51;;;;;;;;;;;18.30;49.90;;;;;;5079047;28;20391;-89
2022/04/30 08:06:16;;;;;;;;;;;18.50;49.80;;;;;;5084233;28;19912;-87
2022/04/30 08:08:42;;;;;;;;;;;18.60;47.40;;;;;;5076839;28;19922;-88
2022/04/30 08:11:07;;;;;;;;;;;18.70;47.00;;;;;;5080827;28;19916;-89
2022/04/30 08:13:33;;;;;;;;;;;18.70;48.00;;;;;;5086913;28;19968;-88
2022/04/30 08:15:58;;;;;;;;;;;18.80;48.10;;;;;;5082340;28;20350;-90
2022/04/30 08:18:26;;;;;;;;;;;18.90;47.50;;;;;;5079034;28;19941;-90
2022/04/30 08:20:52;;;;;;;;;;;18.90;44.60;;;;;;5080930;28;20007;-89
2022/04/30 08:23:18;;;;;;;;;;;18.90;46.10;;;;;;5098267;28;20050;-89
2022/04/30 08:25:44;;;;;;;;;;;18.80;48.20;;;;;;5097992;28;19951;-89
2022/04/30 08:28:09;;;;;;;;;;;18.90;45.00;;;;;;5085091;28;20282;-89
2022/04/30 08:30:35;;;;;;;;;;;18.90;45.40;;;;;;5088218;28;19926;-89
2022/04/30 08:33:00;;;;;;;;;;;19.00;47.20;;;;;;5106991;28;19908;-89
2022/04/30 08:35:26;;;;;;;;;;;19.10;46.90;;;;;;5097427;28;20023;-89
2022/04/30 08:37:52;;;;;;;;;;;19.20;43.00;;;;;;5086835;28;19929;-89
2022/04/30 08:40:17;;;;;;;;;;;19.30;42.70;;;;;;5093213;28;19915;-90
2022/04/30 08:42:43;;;;;;;;;;;19.40;43.50;;;;;;5091493;28;19954;-89
2022/04/30 08:45:09;;;;;;;;;;;19.40;43.50;;;;;;5078506;28;19913;-90
2022/04/30 08:47:39;;;;;;;;;;;19.50;43.70;;;;;;5085842;28;19943;-90
2022/04/30 08:50:07;;;;;;;;;;;19.60;45.00;;;;;;5097284;28;19955;-90
2022/04/30 08:52:32;;;;;;;;;;;19.70;44.20;;;;;;5114522;28;20004;-89
2022/04/30 08:54:58;;;;;;;;;;;19.80;42.20;;;;;;5093536;28;20478;-90
2022/04/30 08:57:24;;;;;;;;;;;19.90;41.10;;;;;;5094372;28;19912;-90
2022/04/30 08:59:50;;;;;;;;;;;19.90;42.00;;;;;;5087940;28;19931;-89
2022/04/30 09:02:16;;;;;;;;;;;19.90;41.60;;;;;;5078162;28;19953;-89
2022/04/30 09:04:45;;;;;;;;;;;20.00;41.90;;;;;;5085153;28;19954;-90
2022/04/30 09:07:13;;;;;;;;;;;20.00;40.30;;;;;;5092889;28;19930;-89
2022/04/30 09:09:39;;;;;;;;;;;19.90;41.50;;;;;;5088163;28;19908;-89
2022/04/30 09:12:08;;;;;;;;;;;19.80;39.20;;;;;;5080655;28;20054;-89
2022/04/30 09:14:34;;;;;;;;;;;19.80;40.40;;;;;;5082093;28;19935;-89
2022/04/30 09:17:00;;;;;;;;;;;19.80;39.20;;;;;;5088999;28;20007;-89
2022/04/30 09:19:26;;;;;;;;;;;19.90;38.90;;;;;;5080529;28;20309;-90
2022/04/30 09:21:51;;;;;;;;;;;19.90;39.50;;;;;;5085403;28;19967;-89
2022/04/30 09:24:17;;;;;;;;;;;20.10;38.80;;;;;;5091881;28;19972;-89
2022/04/30 09:26:43;;;;;;;;;;;20.20;36.70;;;;;;5086135;28;20389;-89
2022/04/30 09:29:18;;;;;;;;;;;20.30;36.90;;;;;;5086845;28;20314;-89
2022/04/30 09:31:48;;;;;;;;;;;20.40;37.30;;;;;;5102660;28;19994;-90
2022/04/30 09:39:42;;;;;;;;;;;20.70;34.60;;;;;;5076686;28;20380;-90
2022/04/30 09:42:08;;;;;;;;;;;20.70;38.20;;;;;;5092606;28;19924;-90
2022/04/30 09:44:35;;;;;;;;;;;20.80;37.00;;;;;;5091902;28;19965;-90
2022/04/30 09:47:01;;;;;;;;;;;20.90;40.70;;;;;;5093414;28;20481;-90
2022/04/30 09:54:55;;;;;;;;;;;20.90;37.00;;;;;;5086403;28;20443;-88
2022/04/30 09:57:22;;;;;;;;;;;20.80;35.20;;;;;;5092382;28;19908;-89
2022/04/30 09:59:50;;;;;;;;;;;20.70;34.80;;;;;;5086727;28;19912;-89
2022/04/30 10:02:16;;;;;;;;;;;20.60;35.00;;;;;;5079443;28;19966;-89
2022/04/30 10:04:43;;;;;;;;;;;20.60;35.90;;;;;;5074539;28;20404;-89
2022/04/30 10:07:09;;;;;;;;;;;20.80;37.60;;;;;;5085053;28;19962;-89
2022/04/30 10:09:37;;;;;;;;;;;20.90;35.50;;;;;;5092149;28;19915;-89
2022/04/30 10:12:05;;;;;;;;;;;21.10;39.90;;;;;;5092349;28;19957;-89
2022/04/30 10:14:40;;;;;;;;;;;21.30;37.00;;;;;;5092399;28;19908;-89
2022/04/30 10:19:35;;;;;;;;;;;21.50;35.30;;;;;;5093210;28;20377;-89
2022/04/30 10:22:16;;;;;;;;;;;21.70;35.80;;;;;;5092922;28;20025;-89
2022/04/30 10:24:53;;;;;;;;;;;21.70;33.70;;;;;;5090415;28;19946;-89
2022/04/30 10:27:19;;;;;;;;;;;21.80;33.60;;;;;;5072797;28;19944;-89
2022/04/30 10:29:55;;;;;;;;;;;22.00;31.10;;;;;;5072789;28;19916;-89
2022/04/30 10:32:41;;;;;;;;;;;21.90;30.60;;;;;;5072964;28;19945;-89
2022/04/30 10:35:06;;;;;;;;;;;21.80;31.20;;;;;;5072757;28;19988;-89
2022/04/30 10:37:33;;;;;;;;;;;21.60;31.70;;;;;;5072837;28;19913;-89
2022/04/30 10:40:00;;;;;;;;;;;21.50;32.60;;;;;;5073014;28;19981;-90
2022/04/30 10:42:45;;;;;;;;;;;21.70;33.00;;;;;;5073484;28;19909;-90
2022/04/30 10:45:15;;;;;;;;;;;21.80;34.60;;;;;;5076569;28;19928;-90
2022/04/30 10:47:51;;;;;;;;;;;21.90;34.50;;;;;;5076755;28;19982;-90
2022/04/30 10:50:17;;;;;;;;;;;22.10;34.30;;;;;;5076394;28;19908;-90
2022/04/30 10:52:46;;;;;;;;;;;22.30;33.10;;;;;;5076512;28;19919;-89
2022/04/30 10:55:12;;;;;;;;;;;22.40;33.70;;;;;;5076123;28;20003;-89
2022/04/30 10:57:41;;;;;;;;;;;22.50;33.30;;;;;;5076322;28;19934;-90
2022/04/30 11:00:07;;;;;;;;;;;22.70;31.90;;;;;;5076235;28;19945;-90
2022/04/30 11:02:33;;;;;;;;;;;22.80;31.10;;;;;;5076207;28;20146;-89
2022/04/30 11:04:59;;;;;;;;;;;22.80;29.40;;;;;;5076181;28;20420;-90
2022/04/30 11:07:26;;;;;;;;;;;22.80;29.10;;;;;;5076090;28;19908;-90
2022/04/30 11:09:52;;;;;;;;;;;22.90;31.20;;;;;;5076007;28;19908;-90
2022/04/30 11:12:17;;;;;;;;;;;23.10;30.60;;;;;;5076089;28;19966;-90
2022/04/30 11:14:46;;;;;;;;;;;23.30;30.10;;;;;;5075943;28;19912;-90
2022/04/30 11:17:11;;;;;;;;;;;23.50;29.80;;;;;;5075942;28;19908;-90
2022/04/30 11:19:44;;;;;;;;;;;23.70;32.60;;;;;;5075957;28;20397;-90
2022/04/30 11:29:57;;;;;;;;;;;23.30;29.90;;;;;;5111166;27;20316;-88
2022/04/30 11:40:42;;;;;;;;;;;23.40;31.40;;;;;;5111078;27;19912;-89
2022/04/30 11:45:08;;;;;;;;;;;23.20;29.00;;;;;;5111151;27;19912;-88
2022/04/30 11:47:34;;;;;;;;;;;23.70;30.50;;;;;;5110031;28;20006;-89
2022/04/30 11:52:00;;;;;;;;;;;23.70;29.00;;;;;;5108179;27;19938;-88
2022/04/30 11:54:27;;;;;;;;;;;23.90;27.70;;;;;;5111064;28;20448;-89
2022/04/30 11:56:53;;;;;;;;;;;24.20;27.90;;;;;;5110966;28;20366;-88
2022/04/30 11:59:28;;;;;;;;;;;24.20;27.50;;;;;;5109637;28;19909;-89
2022/04/30 12:01:54;;;;;;;;;;;23.80;27.30;;;;;;5110898;28;19908;-88
2022/04/30 12:04:21;;;;;;;;;;;23.80;28.40;;;;;;5110826;28;19918;-88
2022/04/30 12:06:57;;;;;;;;;;;23.70;29.20;;;;;;5110814;28;19919;-89
2022/04/30 12:09:27;;;;;;;;;;;24.20;31.80;;;;;;5091386;28;19908;-89
2022/04/30 12:11:53;;;;;;;;;;;24.30;28.20;;;;;;5090260;28;20038;-88
2022/04/30 12:14:19;;;;;;;;;;;24.30;29.20;;;;;;5090310;28;19951;-89
2022/04/30 12:16:45;;;;;;;;;;;24.30;27.70;;;;;;5090197;28;19991;-88
2022/04/30 12:30:55;;;;;;;;;;;24.60;27.50;;;;;;5111092;27;19912;-89
2022/04/30 12:33:21;;;;;;;;;;;24.50;27.50;;;;;;5110935;28;19919;-88
2022/04/30 12:35:55;;;;;;;;;;;24.30;28.00;;;;;;5110888;28;19928;-89
2022/04/30 12:38:20;;;;;;;;;;;24.90;28.00;;;;;;5108344;28;20071;-90
2022/04/30 12:40:47;;;;;;;;;;;26.00;25.80;;;;;;5110976;28;20085;-89
2022/04/30 12:43:13;;;;;;;;;;;26.40;26.10;;;;;;5110977;28;20165;-90
2022/04/30 12:45:42;;;;;;;;;;;26.70;25.40;;;;;;5109460;28;19938;-90
2022/04/30 12:48:09;;;;;;;;;;;27.10;26.00;;;;;;5110772;28;20426;-90
2022/04/30 12:50:36;;;;;;;;;;;27.10;24.90;;;;;;5109407;28;19955;-90
2022/04/30 12:53:01;;;;;;;;;;;27.50;24.90;;;;;;5110691;28;20399;-90
2022/04/30 12:55:29;;;;;;;;;;;27.50;23.90;;;;;;5110570;28;19957;-90
2022/04/30 12:57:55;;;;;;;;;;;27.70;25.10;;;;;;5110626;28;20003;-89
2022/04/30 13:00:20;;;;;;;;;;;27.70;24.70;;;;;;5110573;28;20109;-89
2022/04/30 13:02:46;;;;;;;;;;;27.60;25.10;;;;;;5110536;28;19915;-89
2022/04/30 13:05:12;;;;;;;;;;;27.20;24.40;;;;;;5110429;28;19949;-89
2022/04/30 13:07:39;;;;;;;;;;;26.80;25.00;;;;;;5110158;28;19930;-89
2022/04/30 13:15:41;;;;;;;;;;;27.80;23.90;;;;;;5109261;28;19916;-89
2022/04/30 13:18:07;;;;;;;;;;;28.60;23.40;;;;;;5110167;28;19912;-90
2022/04/30 13:20:34;;;;;;;;;;;28.90;24.30;;;;;;5106880;28;20276;-90
2022/04/30 13:22:59;;;;;;;;;;;29.80;24.10;;;;;;5110379;28;19912;-90
2022/04/30 13:25:25;;;;;;;;;;;30.60;23.70;;;;;;5109601;28;19908;-90
2022/04/30 13:27:51;;;;;;;;;;;31.50;21.60;;;;;;5106741;28;19912;-90
2022/04/30 13:30:18;;;;;;;;;;;32.50;20.40;;;;;;5107222;28;19920;-90
2022/04/30 13:32:44;;;;;;;;;;;32.20;20.90;;;;;;5089361;28;19924;-90
2022/04/30 13:35:09;;;;;;;;;;;32.10;21.30;;;;;;5088939;28;19908;-90
2022/04/30 13:37:40;;;;;;;;;;;31.60;21.40;;;;;;5089648;28;19908;-91
2022/04/30 13:40:09;;;;;;;;;;;32.10;21.20;;;;;;5104861;28;20002;-90
2022/04/30 13:42:35;;;;;;;;;;;32.60;21.10;;;;;;5095827;28;19947;-90
2022/04/30 13:45:01;;;;;;;;;;;31.10;19.90;;;;;;5095965;28;19944;-90
2022/04/30 13:47:28;;;;;;;;;;;29.90;21.50;;;;;;5096073;28;19920;-90
2022/04/30 13:49:54;;;;;;;;;;;29.80;21.20;;;;;;5095863;28;19912;-90
2022/04/30 13:52:21;;;;;;;;;;;30.10;21.60;;;;;;5087872;28;19931;-90
2022/04/30 13:54:47;;;;;;;;;;;30.30;21.10;;;;;;5075467;28;20527;-90
2022/04/30 13:57:13;;;;;;;;;;;30.50;22.10;;;;;;5076632;28;19909;-90
2022/04/30 13:59:38;;;;;;;;;;;30.60;21.40;;;;;;5076502;28;20273;-90
2022/04/30 14:02:04;;;;;;;;;;;30.60;21.30;;;;;;5094643;28;19912;-90
2022/04/30 14:04:30;;;;;;;;;;;30.00;21.20;;;;;;5095660;28;19908;-90
2022/04/30 14:06:59;;;;;;;;;;;29.30;22.70;;;;;;5095690;28;20003;-89
2022/04/30 14:09:25;;;;;;;;;;;30.10;21.40;;;;;;5077926;28;19981;-90
2022/04/30 14:11:51;;;;;;;;;;;30.00;21.80;;;;;;5075390;28;19913;-90
2022/04/30 14:17:01;;;;;;;;;;;30.20;20.70;;;;;;5075290;28;19978;-90
2022/04/30 14:19:27;;;;;;;;;;;28.90;21.80;;;;;;5075242;28;20422;-89
2022/04/30 14:21:53;;;;;;;;;;;28.20;23.10;;;;;;5075154;28;19999;-90
2022/04/30 14:24:18;;;;;;;;;;;28.30;22.90;;;;;;5075175;28;20007;-90
2022/04/30 14:26:47;;;;;;;;;;;28.20;23.10;;;;;;5075103;28;20278;-90
2022/04/30 14:29:13;;;;;;;;;;;28.90;23.20;;;;;;5074820;28;19970;-90
2022/04/30 14:31:39;;;;;;;;;;;29.80;22.00;;;;;;5074971;28;19912;-90
2022/04/30 14:34:05;;;;;;;;;;;29.70;21.20;;;;;;5074976;28;19909;-90
2022/04/30 14:36:33;;;;;;;;;;;29.00;22.50;;;;;;5074933;28;20374;-90
2022/04/30 14:38:59;;;;;;;;;;;28.70;22.40;;;;;;5075148;28;20353;-90
2022/04/30 14:41:24;;;;;;;;;;;28.10;24.20;;;;;;5074768;28;19915;-90
2022/04/30 14:43:50;;;;;;;;;;;28.10;23.20;;;;;;5074734;28;20007;-89
2022/04/30 14:46:15;;;;;;;;;;;27.80;23.10;;;;;;5073439;28;19913;-90
2022/04/30 14:48:41;;;;;;;;;;;27.60;23.70;;;;;;5074553;28;20381;-90
2022/04/30 14:51:06;;;;;;;;;;;27.40;23.60;;;;;;5074651;28;20291;-90
2022/04/30 14:53:32;;;;;;;;;;;27.20;23.90;;;;;;5073584;28;20359;-90
2022/04/30 14:56:01;;;;;;;;;;;27.00;24.50;;;;;;5074500;28;20377;-90
2022/04/30 14:58:27;;;;;;;;;;;26.80;24.60;;;;;;5074723;28;20377;-90
2022/04/30 15:00:52;;;;;;;;;;;26.80;24.40;;;;;;5074389;28;19909;-90
2022/04/30 15:03:18;;;;;;;;;;;26.90;24.60;;;;;;5074311;28;19912;-90
2022/04/30 15:05:43;;;;;;;;;;;27.00;24.50;;;;;;5074538;28;19909;-89
2022/04/30 15:08:09;;;;;;;;;;;26.70;26.90;;;;;;5074510;28;19909;-90
2022/04/30 15:10:34;;;;;;;;;;;26.40;26.60;;;;;;5074079;28;19918;-90
2022/04/30 15:13:00;;;;;;;;;;;26.30;26.30;;;;;;5074071;28;19951;-89
2022/04/30 15:15:25;;;;;;;;;;;25.80;26.50;;;;;;5074245;28;19939;-90
2022/04/30 15:17:51;;;;;;;;;;;25.20;29.10;;;;;;5074074;28;19908;-89
2022/04/30 15:20:17;;;;;;;;;;;25.10;31.10;;;;;;5073988;28;19935;-89
2022/04/30 15:22:42;;;;;;;;;;;25.10;28.50;;;;;;5073969;28;19985;-89
2022/04/30 15:25:09;;;;;;;;;;;25.00;28.20;;;;;;5073983;28;20301;-89
2022/04/30 15:27:35;;;;;;;;;;;24.80;29.80;;;;;;5072615;28;19909;-89
2022/04/30 15:30:01;;;;;;;;;;;24.70;28.10;;;;;;5073604;28;19928;-89
2022/04/30 15:32:28;;;;;;;;;;;24.40;28.80;;;;;;5073647;28;19909;-89
2022/04/30 15:34:53;;;;;;;;;;;24.30;28.90;;;;;;5073750;28;19908;-89
2022/04/30 15:37:19;;;;;;;;;;;23.80;29.80;;;;;;5073694;28;19924;-90
2022/04/30 15:39:45;;;;;;;;;;;23.50;29.40;;;;;;5073859;28;19978;-90
2022/04/30 15:42:11;;;;;;;;;;;23.30;30.10;;;;;;5073547;28;19912;-89
2022/04/30 15:44:37;;;;;;;;;;;23.20;30.30;;;;;;5085150;28;19912;-90
2022/04/30 15:52:31;;;;;;;;;;;23.20;33.00;;;;;;5073428;28;19931;-89
2022/04/30 15:54:57;;;;;;;;;;;23.30;30.70;;;;;;5073320;28;20370;-89
2022/04/30 15:57:23;;;;;;;;;;;23.20;30.30;;;;;;5073371;28;19908;-90
2022/04/30 15:59:50;;;;;;;;;;;23.00;31.40;;;;;;5073267;28;19966;-89